sensor_id;sensor_type;location;lat;lon;timestamp;temperature;humidity
12746;DHT22;6437;53.686;10.030;2022-10-17T00:02:17;13.30;99.90
12746;DHT22;6437;53.686;10.030;2022-10-17T00:05:19;13.30;99.90
12746;DHT22;6437;53.686;10.030;2022-10-17T00:08:22;13.30;99.90
12746;DHT22;6437;53.686;10.030;2022-10-17T00:11:23;13.30;99.90
12746;DHT22;6437;53.686;10.030;2022-10-17T00:14:25;13.30;99.90
12746;DHT22;6437;53.686;10.030;2022-10-17T00:17:27;13.30;99.90
12746;DHT22;6437;53.686;10.030;2022-10-17T00:20:29;13.20;99.90
12746;DHT22;6437;53.686;10.030;2022-10-17T00:23:33;13.30;99.90
12746;DHT22;6437;53.686;10.030;2022-10-17T00:26:35;13.20;99.90
12746;DHT22;6437;53.686;10.030;2022-10-17T00:29:36;13.20;99.90
12746;DHT22;6437;53.686;10.030;2022-10-17T00:32:38;13.20;99.90
12746;DHT22;6437;53.686;10.030;2022-10-17T00:35:39;13.20;99.90
12746;DHT22;6437;53.686;10.030;2022-10-17T00:38:43;13.20;99.90
12746;DHT22;6437;53.686;10.030;2022-10-17T00:41:45;13.20;99.90
12746;DHT22;6437;53.686;10.030;2022-10-17T00:45:05;13.20;99.90
12746;DHT22;6437;53.686;10.030;2022-10-17T00:48:07;13.20;99.90
12746;DHT22;6437;53.686;10.030;2022-10-17T00:51:09;13.20;99.90
12746;DHT22;6437;53.686;10.030;2022-10-17T00:54:13;13.20;99.90
12746;DHT22;6437;53.686;10.030;2022-10-17T00:57:16;13.30;99.90
12746;DHT22;6437;53.686;10.030;2022-10-17T01:00:18;13.20;99.90
12746;DHT22;6437;53.686;10.030;2022-10-17T01:03:19;13.20;99.90
12746;DHT22;6437;53.686;10.030;2022-10-17T01:06:21;13.20;99.90
12746;DHT22;6437;53.686;10.030;2022-10-17T01:09:24;13.20;99.90
12746;DHT22;6437;53.686;10.030;2022-10-17T01:12:27;13.20;99.90
12746;DHT22;6437;53.686;10.030;2022-10-17T01:15:34;13.20;99.90
12746;DHT22;6437;53.686;10.030;2022-10-17T01:18:42;13.20;99.90
12746;DHT22;6437;53.686;10.030;2022-10-17T01:21:47;13.20;99.90
12746;DHT22;6437;53.686;10.030;2022-10-17T01:24:58;13.20;99.90
12746;DHT22;6437;53.686;10.030;2022-10-17T01:28:08;13.20;99.90
12746;DHT22;6437;53.686;10.030;2022-10-17T01:31:13;13.20;99.90
12746;DHT22;6437;53.686;10.030;2022-10-17T01:34:17;13.20;99.90
12746;DHT22;6437;53.686;10.030;2022-10-17T01:37:20;13.20;99.90
12746;DHT22;6437;53.686;10.030;2022-10-17T01:40:25;13.20;99.90
12746;DHT22;6437;53.686;10.030;2022-10-17T01:43:28;13.20;99.90
12746;DHT22;6437;53.686;10.030;2022-10-17T01:46:33;13.20;99.90
12746;DHT22;6437;53.686;10.030;2022-10-17T01:49:36;13.20;99.90
12746;DHT22;6437;53.686;10.030;2022-10-17T01:52:40;13.30;99.90
12746;DHT22;6437;53.686;10.030;2022-10-17T01:55:43;13.30;99.90
12746;DHT22;6437;53.686;10.030;2022-10-17T01:58:46;13.30;99.90
12746;DHT22;6437;53.686;10.030;2022-10-17T02:01:52;13.30;99.90
12746;DHT22;6437;53.686;10.030;2022-10-17T02:04:54;13.30;99.90
12746;DHT22;6437;53.686;10.030;2022-10-17T02:07:57;13.40;99.90
12746;DHT22;6437;53.686;10.030;2022-10-17T02:10:59;13.30;99.90
12746;DHT22;6437;53.686;10.030;2022-10-17T02:14:10;13.40;99.90
12746;DHT22;6437;53.686;10.030;2022-10-17T02:17:17;13.30;99.90
12746;DHT22;6437;53.686;10.030;2022-10-17T02:20:20;13.40;99.90
12746;DHT22;6437;53.686;10.030;2022-10-17T02:23:25;13.40;99.90
12746;DHT22;6437;53.686;10.030;2022-10-17T02:26:29;13.40;99.90
12746;DHT22;6437;53.686;10.030;2022-10-17T02:29:33;13.40;99.90
12746;DHT22;6437;53.686;10.030;2022-10-17T02:32:39;13.30;99.90
12746;DHT22;6437;53.686;10.030;2022-10-17T02:35:44;13.30;99.90
12746;DHT22;6437;53.686;10.030;2022-10-17T02:38:46;13.30;99.90
12746;DHT22;6437;53.686;10.030;2022-10-17T02:41:49;13.30;99.90
12746;DHT22;6437;53.686;10.030;2022-10-17T02:44:51;13.40;99.90
12746;DHT22;6437;53.686;10.030;2022-10-17T02:47:56;13.50;99.90
12746;DHT22;6437;53.686;10.030;2022-10-17T02:51:01;13.40;99.90
12746;DHT22;6437;53.686;10.030;2022-10-17T02:54:06;13.30;99.90
12746;DHT22;6437;53.686;10.030;2022-10-17T02:57:11;13.40;99.90
12746;DHT22;6437;53.686;10.030;2022-10-17T03:00:15;13.40;99.90
12746;DHT22;6437;53.686;10.030;2022-10-17T03:03:19;13.50;99.90
12746;DHT22;6437;53.686;10.030;2022-10-17T03:06:21;13.50;99.90
12746;DHT22;6437;53.686;10.030;2022-10-17T03:09:23;13.50;99.90
12746;DHT22;6437;53.686;10.030;2022-10-17T03:12:24;14.10;99.90
12746;DHT22;6437;53.686;10.030;2022-10-17T03:15:26;13.50;99.90
12746;DHT22;6437;53.686;10.030;2022-10-17T03:18:29;13.60;99.90
12746;DHT22;6437;53.686;10.030;2022-10-17T03:21:30;13.60;99.90
12746;DHT22;6437;53.686;10.030;2022-10-17T03:24:32;13.60;99.90
12746;DHT22;6437;53.686;10.030;2022-10-17T03:27:34;13.60;99.90
12746;DHT22;6437;53.686;10.030;2022-10-17T03:30:36;13.60;99.90
12746;DHT22;6437;53.686;10.030;2022-10-17T03:33:39;13.70;99.90
12746;DHT22;6437;53.686;10.030;2022-10-17T03:36:41;13.70;99.90
12746;DHT22;6437;53.686;10.030;2022-10-17T03:39:43;13.70;99.90
12746;DHT22;6437;53.686;10.030;2022-10-17T03:42:44;13.70;99.90
12746;DHT22;6437;53.686;10.030;2022-10-17T03:45:46;13.70;99.90
12746;DHT22;6437;53.686;10.030;2022-10-17T03:48:49;13.70;99.90
12746;DHT22;6437;53.686;10.030;2022-10-17T03:51:50;13.70;99.90
12746;DHT22;6437;53.686;10.030;2022-10-17T03:54:52;13.70;99.90
12746;DHT22;6437;53.686;10.030;2022-10-17T03:57:54;13.70;99.90
12746;DHT22;6437;53.686;10.030;2022-10-17T04:00:55;13.70;99.90
12746;DHT22;6437;53.686;10.030;2022-10-17T04:03:58;13.70;99.90
12746;DHT22;6437;53.686;10.030;2022-10-17T04:07:00;13.70;99.90
12746;DHT22;6437;53.686;10.030;2022-10-17T04:10:01;13.80;99.90
12746;DHT22;6437;53.686;10.030;2022-10-17T04:13:03;13.70;99.90
12746;DHT22;6437;53.686;10.030;2022-10-17T04:16:06;13.70;99.90
12746;DHT22;6437;53.686;10.030;2022-10-17T04:19:11;13.70;99.90
12746;DHT22;6437;53.686;10.030;2022-10-17T04:22:13;13.50;99.90
12746;DHT22;6437;53.686;10.030;2022-10-17T04:25:14;13.70;99.90
12746;DHT22;6437;53.686;10.030;2022-10-17T04:28:16;13.70;99.90
12746;DHT22;6437;53.686;10.030;2022-10-17T04:31:18;13.70;99.90
12746;DHT22;6437;53.686;10.030;2022-10-17T04:34:21;13.80;99.90
12746;DHT22;6437;53.686;10.030;2022-10-17T04:37:22;13.70;99.90
12746;DHT22;6437;53.686;10.030;2022-10-17T04:40:24;13.70;99.90
12746;DHT22;6437;53.686;10.030;2022-10-17T04:43:26;13.70;99.90
12746;DHT22;6437;53.686;10.030;2022-10-17T04:46:28;13.70;99.90
12746;DHT22;6437;53.686;10.030;2022-10-17T04:49:31;13.70;99.90
12746;DHT22;6437;53.686;10.030;2022-10-17T04:52:33;13.70;99.90
12746;DHT22;6437;53.686;10.030;2022-10-17T04:55:36;13.80;99.90
12746;DHT22;6437;53.686;10.030;2022-10-17T04:58:38;13.60;99.90
12746;DHT22;6437;53.686;10.030;2022-10-17T05:01:40;13.60;99.90
12746;DHT22;6437;53.686;10.030;2022-10-17T05:04:43;13.60;99.90
12746;DHT22;6437;53.686;10.030;2022-10-17T05:07:44;13.60;99.90
12746;DHT22;6437;53.686;10.030;2022-10-17T05:10:46;13.50;99.90
12746;DHT22;6437;53.686;10.030;2022-10-17T05:13:48;13.60;99.90
12746;DHT22;6437;53.686;10.030;2022-10-17T05:16:50;13.50;99.90
12746;DHT22;6437;53.686;10.030;2022-10-17T05:19:53;13.50;99.90
12746;DHT22;6437;53.686;10.030;2022-10-17T05:22:54;13.40;99.90
12746;DHT22;6437;53.686;10.030;2022-10-17T05:25:56;13.50;99.90
12746;DHT22;6437;53.686;10.030;2022-10-17T05:28:58;13.40;99.90
12746;DHT22;6437;53.686;10.030;2022-10-17T05:32:02;13.40;99.90
12746;DHT22;6437;53.686;10.030;2022-10-17T05:35:05;13.40;99.90
12746;DHT22;6437;53.686;10.030;2022-10-17T05:38:07;13.40;99.90
12746;DHT22;6437;53.686;10.030;2022-10-17T05:41:09;13.40;99.90
12746;DHT22;6437;53.686;10.030;2022-10-17T05:44:10;12.90;99.90
12746;DHT22;6437;53.686;10.030;2022-10-17T05:47:12;13.30;99.90
12746;DHT22;6437;53.686;10.030;2022-10-17T05:50:15;13.30;99.90
12746;DHT22;6437;53.686;10.030;2022-10-17T05:53:20;13.30;99.90
12746;DHT22;6437;53.686;10.030;2022-10-17T05:56:21;13.30;99.90
12746;DHT22;6437;53.686;10.030;2022-10-17T05:59:23;13.30;99.90
12746;DHT22;6437;53.686;10.030;2022-10-17T06:02:25;13.30;99.90
12746;DHT22;6437;53.686;10.030;2022-10-17T06:05:28;13.30;99.90
12746;DHT22;6437;53.686;10.030;2022-10-17T06:08:30;13.30;99.90
12746;DHT22;6437;53.686;10.030;2022-10-17T06:11:31;13.30;99.90
12746;DHT22;6437;53.686;10.030;2022-10-17T06:14:33;13.30;99.90
12746;DHT22;6437;53.686;10.030;2022-10-17T06:17:35;13.30;99.90
12746;DHT22;6437;53.686;10.030;2022-10-17T06:20:38;13.30;99.90
12746;DHT22;6437;53.686;10.030;2022-10-17T06:23:39;13.30;99.90
12746;DHT22;6437;53.686;10.030;2022-10-17T06:26:41;13.30;99.90
12746;DHT22;6437;53.686;10.030;2022-10-17T06:29:43;13.30;99.90
12746;DHT22;6437;53.686;10.030;2022-10-17T06:32:44;13.20;99.90
12746;DHT22;6437;53.686;10.030;2022-10-17T06:35:50;13.30;99.90
12746;DHT22;6437;53.686;10.030;2022-10-17T06:38:53;13.30;99.90
12746;DHT22;6437;53.686;10.030;2022-10-17T06:41:54;13.30;99.90
12746;DHT22;6437;53.686;10.030;2022-10-17T06:44:56;13.30;99.90
12746;DHT22;6437;53.686;10.030;2022-10-17T06:47:57;13.30;99.90
12746;DHT22;6437;53.686;10.030;2022-10-17T06:51:01;13.40;99.90
12746;DHT22;6437;53.686;10.030;2022-10-17T06:54:03;13.40;99.90
12746;DHT22;6437;53.686;10.030;2022-10-17T06:57:05;13.30;99.90
12746;DHT22;6437;53.686;10.030;2022-10-17T07:00:07;13.50;99.90
12746;DHT22;6437;53.686;10.030;2022-10-17T07:03:09;13.50;99.90
12746;DHT22;6437;53.686;10.030;2022-10-17T07:06:12;13.50;99.90
12746;DHT22;6437;53.686;10.030;2022-10-17T07:09:14;13.60;99.90
12746;DHT22;6437;53.686;10.030;2022-10-17T07:12:16;13.60;99.90
12746;DHT22;6437;53.686;10.030;2022-10-17T07:15:18;13.60;99.90
12746;DHT22;6437;53.686;10.030;2022-10-17T07:18:19;13.70;99.90
12746;DHT22;6437;53.686;10.030;2022-10-17T07:21:22;13.80;99.90
12746;DHT22;6437;53.686;10.030;2022-10-17T07:24:24;13.80;99.90
12746;DHT22;6437;53.686;10.030;2022-10-17T07:27:25;13.80;99.90
12746;DHT22;6437;53.686;10.030;2022-10-17T07:30:27;13.90;99.90
12746;DHT22;6437;53.686;10.030;2022-10-17T07:33:29;14.00;99.90
12746;DHT22;6437;53.686;10.030;2022-10-17T07:36:31;14.00;99.90
12746;DHT22;6437;53.686;10.030;2022-10-17T07:39:33;14.10;99.90
12746;DHT22;6437;53.686;10.030;2022-10-17T07:42:36;14.20;99.90
12746;DHT22;6437;53.686;10.030;2022-10-17T07:45:37;14.20;99.90
12746;DHT22;6437;53.686;10.030;2022-10-17T07:48:41;14.20;99.90
12746;DHT22;6437;53.686;10.030;2022-10-17T07:51:44;13.90;99.90
12746;DHT22;6437;53.686;10.030;2022-10-17T07:54:45;15.00;99.90
12746;DHT22;6437;53.686;10.030;2022-10-17T07:57:47;14.40;99.90
12746;DHT22;6437;53.686;10.030;2022-10-17T08:00:48;14.40;99.90
12746;DHT22;6437;53.686;10.030;2022-10-17T08:03:50;14.50;99.90
12746;DHT22;6437;53.686;10.030;2022-10-17T08:06:53;14.60;99.90
12746;DHT22;6437;53.686;10.030;2022-10-17T08:09:55;14.60;99.90
12746;DHT22;6437;53.686;10.030;2022-10-17T08:12:57;14.70;99.90
12746;DHT22;6437;53.686;10.030;2022-10-17T08:15:59;14.70;99.90
12746;DHT22;6437;53.686;10.030;2022-10-17T08:19:00;14.80;99.90
12746;DHT22;6437;53.686;10.030;2022-10-17T08:22:03;14.90;99.90
12746;DHT22;6437;53.686;10.030;2022-10-17T08:25:05;14.90;99.90
12746;DHT22;6437;53.686;10.030;2022-10-17T08:28:07;15.00;99.90
12746;DHT22;6437;53.686;10.030;2022-10-17T08:31:10;15.00;99.90
12746;DHT22;6437;53.686;10.030;2022-10-17T08:34:11;15.10;99.90
12746;DHT22;6437;53.686;10.030;2022-10-17T08:37:14;15.10;99.90
12746;DHT22;6437;53.686;10.030;2022-10-17T08:40:18;15.20;99.90
12746;DHT22;6437;53.686;10.030;2022-10-17T08:43:27;15.20;99.90
12746;DHT22;6437;53.686;10.030;2022-10-17T08:46:29;15.30;99.90
12746;DHT22;6437;53.686;10.030;2022-10-17T08:49:34;15.30;99.90
12746;DHT22;6437;53.686;10.030;2022-10-17T08:52:39;15.40;99.90
12746;DHT22;6437;53.686;10.030;2022-10-17T08:55:43;15.40;99.90
12746;DHT22;6437;53.686;10.030;2022-10-17T08:58:45;15.50;99.90
12746;DHT22;6437;53.686;10.030;2022-10-17T09:01:48;15.50;99.90
12746;DHT22;6437;53.686;10.030;2022-10-17T09:04:53;15.60;99.90
12746;DHT22;6437;53.686;10.030;2022-10-17T09:08:03;15.60;99.90
12746;DHT22;6437;53.686;10.030;2022-10-17T09:11:09;15.70;99.90
12746;DHT22;6437;53.686;10.030;2022-10-17T09:14:23;15.80;99.90
12746;DHT22;6437;53.686;10.030;2022-10-17T09:17:31;15.80;99.90
12746;DHT22;6437;53.686;10.030;2022-10-17T09:20:35;15.90;99.90
12746;DHT22;6437;53.686;10.030;2022-10-17T09:23:40;15.90;99.90
12746;DHT22;6437;53.686;10.030;2022-10-17T09:26:45;15.90;99.90
12746;DHT22;6437;53.686;10.030;2022-10-17T09:29:47;16.00;99.90
12746;DHT22;6437;53.686;10.030;2022-10-17T09:32:49;16.10;99.90
12746;DHT22;6437;53.686;10.030;2022-10-17T09:35:51;16.10;99.90
12746;DHT22;6437;53.686;10.030;2022-10-17T09:38:55;16.10;99.90
12746;DHT22;6437;53.686;10.030;2022-10-17T09:41:58;16.20;99.90
12746;DHT22;6437;53.686;10.030;2022-10-17T09:45:02;16.20;99.90
12746;DHT22;6437;53.686;10.030;2022-10-17T09:48:06;16.30;99.90
12746;DHT22;6437;53.686;10.030;2022-10-17T09:51:11;16.30;99.90
12746;DHT22;6437;53.686;10.030;2022-10-17T09:54:17;16.30;99.90
12746;DHT22;6437;53.686;10.030;2022-10-17T09:57:20;16.40;99.90
12746;DHT22;6437;53.686;10.030;2022-10-17T10:00:23;16.40;99.90
12746;DHT22;6437;53.686;10.030;2022-10-17T10:03:25;16.50;99.90
12746;DHT22;6437;53.686;10.030;2022-10-17T10:06:27;16.50;99.90
12746;DHT22;6437;53.686;10.030;2022-10-17T10:09:32;16.50;99.90
12746;DHT22;6437;53.686;10.030;2022-10-17T10:12:34;16.60;99.90
12746;DHT22;6437;53.686;10.030;2022-10-17T10:15:37;16.60;99.90
12746;DHT22;6437;53.686;10.030;2022-10-17T10:18:40;16.70;99.90
12746;DHT22;6437;53.686;10.030;2022-10-17T10:21:48;16.70;99.90
12746;DHT22;6437;53.686;10.030;2022-10-17T10:25:10;16.80;99.90
12746;DHT22;6437;53.686;10.030;2022-10-17T10:28:13;16.80;99.90
12746;DHT22;6437;53.686;10.030;2022-10-17T10:31:16;16.80;99.90
12746;DHT22;6437;53.686;10.030;2022-10-17T10:34:26;16.90;99.90
12746;DHT22;6437;53.686;10.030;2022-10-17T10:37:28;17.00;99.90
12746;DHT22;6437;53.686;10.030;2022-10-17T10:40:34;17.00;99.90
12746;DHT22;6437;53.686;10.030;2022-10-17T10:43:38;17.10;99.90
12746;DHT22;6437;53.686;10.030;2022-10-17T10:46:41;17.10;99.90
12746;DHT22;6437;53.686;10.030;2022-10-17T10:49:43;17.20;99.90
12746;DHT22;6437;53.686;10.030;2022-10-17T10:52:45;17.20;99.90
12746;DHT22;6437;53.686;10.030;2022-10-17T10:55:49;17.30;99.90
12746;DHT22;6437;53.686;10.030;2022-10-17T10:58:53;17.30;99.90
12746;DHT22;6437;53.686;10.030;2022-10-17T11:01:55;17.40;99.90
12746;DHT22;6437;53.686;10.030;2022-10-17T11:04:58;17.40;99.90
12746;DHT22;6437;53.686;10.030;2022-10-17T11:08:04;17.40;99.90
12746;DHT22;6437;53.686;10.030;2022-10-17T11:11:11;17.40;99.90
12746;DHT22;6437;53.686;10.030;2022-10-17T11:14:19;17.50;99.90
12746;DHT22;6437;53.686;10.030;2022-10-17T11:17:24;17.40;99.90
12746;DHT22;6437;53.686;10.030;2022-10-17T11:20:31;17.40;99.90
12746;DHT22;6437;53.686;10.030;2022-10-17T11:23:33;17.50;99.90
12746;DHT22;6437;53.686;10.030;2022-10-17T11:26:41;17.40;99.90
12746;DHT22;6437;53.686;10.030;2022-10-17T11:29:43;17.50;99.90
12746;DHT22;6437;53.686;10.030;2022-10-17T11:32:45;17.40;99.90
12746;DHT22;6437;53.686;10.030;2022-10-17T11:35:49;17.50;99.90
12746;DHT22;6437;53.686;10.030;2022-10-17T11:38:53;17.50;99.90
12746;DHT22;6437;53.686;10.030;2022-10-17T11:41:56;17.50;99.90
12746;DHT22;6437;53.686;10.030;2022-10-17T11:45:01;17.40;99.90
12746;DHT22;6437;53.686;10.030;2022-10-17T11:48:06;17.50;99.90
12746;DHT22;6437;53.686;10.030;2022-10-17T11:51:11;17.50;99.90
12746;DHT22;6437;53.686;10.030;2022-10-17T11:54:14;17.50;99.90
12746;DHT22;6437;53.686;10.030;2022-10-17T11:57:31;17.50;99.90
12746;DHT22;6437;53.686;10.030;2022-10-17T12:00:46;17.50;99.90
12746;DHT22;6437;53.686;10.030;2022-10-17T12:03:53;17.50;99.90
12746;DHT22;6437;53.686;10.030;2022-10-17T12:07:00;17.60;99.90
12746;DHT22;6437;53.686;10.030;2022-10-17T12:10:12;17.50;99.90
12746;DHT22;6437;53.686;10.030;2022-10-17T12:16:45;17.60;99.90
12746;DHT22;6437;53.686;10.030;2022-10-17T12:19:46;17.60;99.90
12746;DHT22;6437;53.686;10.030;2022-10-17T12:22:48;17.60;99.90
12746;DHT22;6437;53.686;10.030;2022-10-17T12:25:51;17.60;99.90
12746;DHT22;6437;53.686;10.030;2022-10-17T12:28:53;17.50;99.90
12746;DHT22;6437;53.686;10.030;2022-10-17T12:32:07;17.50;99.90
12746;DHT22;6437;53.686;10.030;2022-10-17T12:35:13;17.50;99.90
12746;DHT22;6437;53.686;10.030;2022-10-17T12:38:20;17.50;99.90
12746;DHT22;6437;53.686;10.030;2022-10-17T12:41:51;17.40;99.90
12746;DHT22;6437;53.686;10.030;2022-10-17T12:44:53;17.40;99.90
12746;DHT22;6437;53.686;10.030;2022-10-17T12:47:56;17.40;99.90
12746;DHT22;6437;53.686;10.030;2022-10-17T12:51:01;17.30;99.90
12746;DHT22;6437;53.686;10.030;2022-10-17T12:54:07;17.30;99.90
12746;DHT22;6437;53.686;10.030;2022-10-17T12:57:16;17.30;99.90
12746;DHT22;6437;53.686;10.030;2022-10-17T13:00:20;17.30;99.90
12746;DHT22;6437;53.686;10.030;2022-10-17T13:03:24;17.20;99.90
12746;DHT22;6437;53.686;10.030;2022-10-17T13:06:27;17.20;99.90
12746;DHT22;6437;53.686;10.030;2022-10-17T13:09:30;17.20;99.90
12746;DHT22;6437;53.686;10.030;2022-10-17T13:12:33;17.20;99.90
12746;DHT22;6437;53.686;10.030;2022-10-17T13:15:36;17.20;99.90
12746;DHT22;6437;53.686;10.030;2022-10-17T13:18:39;17.30;99.90
12746;DHT22;6437;53.686;10.030;2022-10-17T13:21:48;17.20;99.90
12746;DHT22;6437;53.686;10.030;2022-10-17T13:24:50;17.20;99.90
12746;DHT22;6437;53.686;10.030;2022-10-17T13:28:02;17.10;99.90
12746;DHT22;6437;53.686;10.030;2022-10-17T13:31:04;17.10;99.90
12746;DHT22;6437;53.686;10.030;2022-10-17T13:34:14;17.10;99.90
12746;DHT22;6437;53.686;10.030;2022-10-17T13:37:15;17.00;99.90
12746;DHT22;6437;53.686;10.030;2022-10-17T13:40:18;17.00;99.90
12746;DHT22;6437;53.686;10.030;2022-10-17T13:43:20;17.00;99.90
12746;DHT22;6437;53.686;10.030;2022-10-17T13:46:25;17.00;99.90
12746;DHT22;6437;53.686;10.030;2022-10-17T13:49:30;17.00;99.90
12746;DHT22;6437;53.686;10.030;2022-10-17T13:52:32;17.00;99.90
12746;DHT22;6437;53.686;10.030;2022-10-17T13:55:34;17.00;99.90
12746;DHT22;6437;53.686;10.030;2022-10-17T13:58:39;17.00;99.90
12746;DHT22;6437;53.686;10.030;2022-10-17T14:01:40;17.00;99.90
12746;DHT22;6437;53.686;10.030;2022-10-17T14:04:43;17.00;99.90
12746;DHT22;6437;53.686;10.030;2022-10-17T14:07:49;16.90;99.90
12746;DHT22;6437;53.686;10.030;2022-10-17T14:10:51;16.90;99.90
12746;DHT22;6437;53.686;10.030;2022-10-17T14:13:53;16.90;99.90
12746;DHT22;6437;53.686;10.030;2022-10-17T14:16:55;16.90;99.90
12746;DHT22;6437;53.686;10.030;2022-10-17T14:19:59;16.90;99.90
12746;DHT22;6437;53.686;10.030;2022-10-17T14:23:02;16.90;99.90
12746;DHT22;6437;53.686;10.030;2022-10-17T14:26:13;16.90;99.90
12746;DHT22;6437;53.686;10.030;2022-10-17T14:29:22;16.90;99.90
12746;DHT22;6437;53.686;10.030;2022-10-17T14:32:24;16.90;99.90
12746;DHT22;6437;53.686;10.030;2022-10-17T14:35:27;16.90;99.90
12746;DHT22;6437;53.686;10.030;2022-10-17T14:38:29;16.90;99.90
12746;DHT22;6437;53.686;10.030;2022-10-17T14:41:31;16.90;99.90
12746;DHT22;6437;53.686;10.030;2022-10-17T14:44:34;16.90;99.90
12746;DHT22;6437;53.686;10.030;2022-10-17T14:47:36;16.90;99.90
12746;DHT22;6437;53.686;10.030;2022-10-17T14:50:39;16.90;99.90
12746;DHT22;6437;53.686;10.030;2022-10-17T14:53:42;16.90;99.90
12746;DHT22;6437;53.686;10.030;2022-10-17T14:56:47;16.90;99.90
12746;DHT22;6437;53.686;10.030;2022-10-17T14:59:49;16.90;99.90
12746;DHT22;6437;53.686;10.030;2022-10-17T15:02:51;16.90;99.90
12746;DHT22;6437;53.686;10.030;2022-10-17T15:05:54;16.90;99.90
12746;DHT22;6437;53.686;10.030;2022-10-17T15:08:56;16.90;99.90
12746;DHT22;6437;53.686;10.030;2022-10-17T15:11:58;16.90;99.90
12746;DHT22;6437;53.686;10.030;2022-10-17T15:15:00;16.90;99.90
12746;DHT22;6437;53.686;10.030;2022-10-17T15:18:02;16.90;99.90
12746;DHT22;6437;53.686;10.030;2022-10-17T15:21:08;16.90;99.90
12746;DHT22;6437;53.686;10.030;2022-10-17T15:24:11;16.90;99.90
12746;DHT22;6437;53.686;10.030;2022-10-17T15:27:14;16.80;99.90
12746;DHT22;6437;53.686;10.030;2022-10-17T15:30:17;16.90;99.90
12746;DHT22;6437;53.686;10.030;2022-10-17T15:33:19;16.90;99.90
12746;DHT22;6437;53.686;10.030;2022-10-17T15:36:23;16.90;99.90
12746;DHT22;6437;53.686;10.030;2022-10-17T15:39:25;16.90;99.90
12746;DHT22;6437;53.686;10.030;2022-10-17T15:42:27;16.80;99.90
12746;DHT22;6437;53.686;10.030;2022-10-17T15:45:29;16.80;99.90
12746;DHT22;6437;53.686;10.030;2022-10-17T15:48:33;16.90;99.90
12746;DHT22;6437;53.686;10.030;2022-10-17T15:51:36;16.90;99.90
12746;DHT22;6437;53.686;10.030;2022-10-17T15:54:38;16.90;99.90
12746;DHT22;6437;53.686;10.030;2022-10-17T15:57:40;16.90;99.90
12746;DHT22;6437;53.686;10.030;2022-10-17T16:00:42;16.80;99.90
12746;DHT22;6437;53.686;10.030;2022-10-17T16:03:43;16.90;99.90
12746;DHT22;6437;53.686;10.030;2022-10-17T16:06:48;16.80;99.90
12746;DHT22;6437;53.686;10.030;2022-10-17T16:09:49;16.90;99.90
12746;DHT22;6437;53.686;10.030;2022-10-17T16:12:51;16.90;99.90
12746;DHT22;6437;53.686;10.030;2022-10-17T16:15:53;16.90;99.90
12746;DHT22;6437;53.686;10.030;2022-10-17T16:18:54;16.80;99.90
12746;DHT22;6437;53.686;10.030;2022-10-17T16:21:57;16.60;99.90
12746;DHT22;6437;53.686;10.030;2022-10-17T16:25:00;16.80;99.90
12746;DHT22;6437;53.686;10.030;2022-10-17T16:28:08;16.80;99.90
12746;DHT22;6437;53.686;10.030;2022-10-17T16:31:14;16.80;99.90
12746;DHT22;6437;53.686;10.030;2022-10-17T16:34:17;16.80;99.90
12746;DHT22;6437;53.686;10.030;2022-10-17T16:37:20;16.80;99.90
12746;DHT22;6437;53.686;10.030;2022-10-17T16:40:22;16.80;99.90
12746;DHT22;6437;53.686;10.030;2022-10-17T16:43:24;16.80;99.90
12746;DHT22;6437;53.686;10.030;2022-10-17T16:46:26;16.80;99.90
12746;DHT22;6437;53.686;10.030;2022-10-17T16:49:27;16.80;99.90
12746;DHT22;6437;53.686;10.030;2022-10-17T16:52:30;16.80;99.90
12746;DHT22;6437;53.686;10.030;2022-10-17T16:55:32;16.80;99.90
12746;DHT22;6437;53.686;10.030;2022-10-17T16:58:34;16.70;99.90
12746;DHT22;6437;53.686;10.030;2022-10-17T17:01:36;16.80;99.90
12746;DHT22;6437;53.686;10.030;2022-10-17T17:04:38;16.70;99.90
12746;DHT22;6437;53.686;10.030;2022-10-17T17:07:41;16.70;99.90
12746;DHT22;6437;53.686;10.030;2022-10-17T17:10:43;16.80;99.90
12746;DHT22;6437;53.686;10.030;2022-10-17T17:13:45;16.80;99.90
12746;DHT22;6437;53.686;10.030;2022-10-17T17:16:46;16.70;99.90
12746;DHT22;6437;53.686;10.030;2022-10-17T17:19:48;16.70;99.90
12746;DHT22;6437;53.686;10.030;2022-10-17T17:22:51;16.70;99.90
12746;DHT22;6437;53.686;10.030;2022-10-17T17:25:56;16.70;99.90
12746;DHT22;6437;53.686;10.030;2022-10-17T17:28:58;16.70;99.90
12746;DHT22;6437;53.686;10.030;2022-10-17T17:32:00;16.60;99.90
12746;DHT22;6437;53.686;10.030;2022-10-17T17:35:01;16.70;99.90
12746;DHT22;6437;53.686;10.030;2022-10-17T17:38:04;16.70;99.90
12746;DHT22;6437;53.686;10.030;2022-10-17T17:41:06;16.70;99.90
12746;DHT22;6437;53.686;10.030;2022-10-17T17:44:09;16.60;99.90
12746;DHT22;6437;53.686;10.030;2022-10-17T17:47:10;16.60;99.90
12746;DHT22;6437;53.686;10.030;2022-10-17T17:50:12;16.70;99.90
12746;DHT22;6437;53.686;10.030;2022-10-17T17:53:15;16.60;99.90
12746;DHT22;6437;53.686;10.030;2022-10-17T17:56:18;16.60;99.90
12746;DHT22;6437;53.686;10.030;2022-10-17T17:59:19;16.60;99.90
12746;DHT22;6437;53.686;10.030;2022-10-17T18:02:21;16.60;99.90
12746;DHT22;6437;53.686;10.030;2022-10-17T18:05:22;16.60;99.90
12746;DHT22;6437;53.686;10.030;2022-10-17T18:08:25;16.60;99.90
12746;DHT22;6437;53.686;10.030;2022-10-17T18:11:27;16.60;99.90
12746;DHT22;6437;53.686;10.030;2022-10-17T18:14:29;16.60;99.90
12746;DHT22;6437;53.686;10.030;2022-10-17T18:17:31;16.60;99.90
12746;DHT22;6437;53.686;10.030;2022-10-17T18:20:32;16.60;99.90
12746;DHT22;6437;53.686;10.030;2022-10-17T18:23:36;16.60;99.90
12746;DHT22;6437;53.686;10.030;2022-10-17T18:26:38;16.60;99.90
12746;DHT22;6437;53.686;10.030;2022-10-17T18:29:40;16.60;99.90
12746;DHT22;6437;53.686;10.030;2022-10-17T18:32:42;16.60;99.90
12746;DHT22;6437;53.686;10.030;2022-10-17T18:35:44;16.60;99.90
12746;DHT22;6437;53.686;10.030;2022-10-17T18:38:46;16.60;99.90
12746;DHT22;6437;53.686;10.030;2022-10-17T18:41:48;16.60;99.90
12746;DHT22;6437;53.686;10.030;2022-10-17T18:44:50;16.60;99.90
12746;DHT22;6437;53.686;10.030;2022-10-17T18:47:51;16.60;99.90
12746;DHT22;6437;53.686;10.030;2022-10-17T18:50:53;16.50;99.90
12746;DHT22;6437;53.686;10.030;2022-10-17T18:53:56;16.60;99.90
12746;DHT22;6437;53.686;10.030;2022-10-17T18:56:58;16.60;99.90
12746;DHT22;6437;53.686;10.030;2022-10-17T18:59:59;16.50;99.90
12746;DHT22;6437;53.686;10.030;2022-10-17T19:03:01;16.50;99.90
12746;DHT22;6437;53.686;10.030;2022-10-17T19:06:04;16.50;99.90
12746;DHT22;6437;53.686;10.030;2022-10-17T19:09:10;16.40;99.90
12746;DHT22;6437;53.686;10.030;2022-10-17T19:12:12;16.40;99.90
12746;DHT22;6437;53.686;10.030;2022-10-17T19:15:13;16.30;99.90
12746;DHT22;6437;53.686;10.030;2022-10-17T19:18:15;16.30;99.90
12746;DHT22;6437;53.686;10.030;2022-10-17T19:21:16;16.30;99.90